Caineville, Utah
Current Conditions -  °F | °C
As of 5:53 PM on Tuesday 21 Oct 2014 (Local Time) from KBCE Reporting Station
Broken Clouds Broken Clouds  
Wind Chill: 57°   Ceiling: 8000
Heat Index: 57°   Visibility: 10mi
Dew Point: 35°   Wind: 9mph
Humidity: 44%   Direction: 210°SSW
Pressure: 30.09"   Gusts: NA
Location:  38.2517°N, 111.706°W
Report Text: KBCE 212353Z AUTO 21008KT 10SM SCT065 BKN080 14/02 A3009 RMK AO2 SLP114 T01390017 10167 20133 55001 TSNO
Loading
Personal Weather Stations






























Interactive Weather Map
Tropical Storm Tracking
New forecast layout! Learn more

10-Day Weather Forecast

Advertisements
Track Severe Weather on mobile